Time;durP1;ratioP1;P1;durP2;ratioP2;P2;SDS_P1;SDS_P2;PMS_P1;PMS_P2;Temp;Humidity;BMP_temperature;BMP_pressure;BME280_temperature;BME280_humidity;BME280_pressure;Samples;Min_cycle;Max_cycle;Signal;HPM_P1;HPM_P2
2022/05/31 00:01:17;;;;;;;12.55;11.45;;;;;;;11.48;64.48;100199.69;4973575;28;97443;-83
2022/05/31 00:03:43;;;;;;;11.93;10.85;;;;;;;11.50;64.30;100207.53;4957200;28;101172;-82
2022/05/31 00:06:08;;;;;;;12.30;11.30;;;;;;;11.59;64.11;100216.84;4983781;28;101742;-83
2022/05/31 00:08:34;;;;;;;12.27;10.95;;;;;;;11.61;63.91;100210.59;4960667;28;96849;-83
2022/05/31 00:11:00;;;;;;;12.23;11.25;;;;;;;11.16;64.27;100177.31;4961395;28;97259;-85
2022/05/31 00:13:27;;;;;;;16.17;11.80;;;;;;;11.32;64.75;100217.84;4967251;28;101976;-83
2022/05/31 00:15:53;;;;;;;12.15;10.93;;;;;;;11.28;64.72;100220.66;4986073;28;97551;-83
2022/05/31 00:18:19;;;;;;;13.38;11.20;;;;;;;11.27;65.01;100225.06;4973125;28;97588;-83
2022/05/31 00:20:44;;;;;;;11.88;10.70;;;;;;;11.28;64.99;100218.03;4982314;28;97277;-83
2022/05/31 00:23:10;;;;;;;12.20;11.10;;;;;;;11.28;64.69;100220.66;4976163;28;97923;-83
2022/05/31 00:25:36;;;;;;;12.00;11.10;;;;;;;11.30;64.67;100217.06;4981119;28;101484;-83
2022/05/31 00:28:02;;;;;;;11.85;10.95;;;;;;;11.23;64.31;100210.34;4983015;28;96860;-84
2022/05/31 00:30:28;;;;;;;13.25;11.52;;;;;;;11.15;65.32;100225.53;4993914;28;98457;-83
2022/05/31 00:32:53;;;;;;;11.70;10.73;;;;;;;11.05;65.20;100213.63;4968990;28;101106;-83
2022/05/31 00:35:23;;;;;;;12.10;11.20;;;;;;;10.88;65.35;100195.91;5003046;28;97997;-84
2022/05/31 00:37:49;;;;;;;12.30;11.32;;;;;;;10.90;65.87;100209.81;5006779;28;97069;-83
2022/05/31 00:40:17;;;;;;;11.90;11.00;;;;;;;10.97;65.66;100218.34;4954216;28;97373;-83
2022/05/31 00:42:55;;;;;;;12.18;11.18;;;;;;;10.98;65.62;100218.28;4979847;28;100964;-83
2022/05/31 00:45:25;;;;;;;13.55;12.23;;;;;;;11.04;65.42;100223.28;4956104;28;101522;-84
2022/05/31 00:47:51;;;;;;;12.00;11.10;;;;;;;10.94;65.79;100232.44;4952773;28;97086;-82
2022/05/31 00:50:26;;;;;;;12.50;11.50;;;;;;;10.85;66.13;100228.38;4972360;28;97179;-83
2022/05/31 00:52:57;;;;;;;12.75;11.77;;;;;;;10.81;65.58;100221.50;4972104;28;100108;-84
2022/05/31 00:55:26;;;;;;;12.40;11.20;;;;;;;10.85;65.54;100224.91;4952408;28;101620;-83
2022/05/31 00:57:57;;;;;;;12.20;11.10;;;;;;;10.78;65.72;100224.25;4988843;28;97334;-83
2022/05/31 01:00:23;;;;;;;12.50;11.47;;;;;;;10.74;65.60;100227.06;4947485;28;97232;-84
2022/05/31 01:02:49;;;;;;;13.07;11.98;;;;;;;10.78;65.96;100233.91;4955841;28;101194;-83
2022/05/31 01:05:16;;;;;;;13.18;11.98;;;;;;;10.71;66.12;100221.94;4956309;28;101339;-83
2022/05/31 01:07:42;;;;;;;12.82;11.73;;;;;;;10.70;65.64;100236.78;4957604;28;96888;-83
2022/05/31 01:10:09;;;;;;;13.63;12.52;;;;;;;10.56;65.75;100215.44;4993069;28;97326;-85
2022/05/31 01:12:58;;;;;;;12.65;11.55;;;;;;;10.70;65.92;100241.19;4955310;28;97562;-84
2022/05/31 01:15:43;;;;;;;13.05;12.05;;;;;;;10.42;65.98;100210.69;4995505;28;97065;-83
2022/05/31 01:18:32;;;;;;;13.18;12.18;;;;;;;10.57;66.35;100240.78;4975387;28;97357;-83
2022/05/31 01:21:36;;;;;;;13.40;12.20;;;;;;;10.61;65.69;100239.75;4982411;28;96822;-82
2022/05/31 01:24:26;;;;;;;12.73;11.75;;;;;;;10.53;65.99;100226.03;4979449;28;97869;-83
2022/05/31 01:26:56;;;;;;;12.68;11.77;;;;;;;10.64;65.63;100239.66;4977391;28;101284;-83
2022/05/31 01:29:29;;;;;;;12.55;11.55;;;;;;;10.65;65.15;100236.13;4959573;28;96768;-83
2022/05/31 01:32:00;;;;;;;12.18;11.27;;;;;;;10.52;65.38;100230.44;4968465;28;96880;-84
2022/05/31 01:34:52;;;;;;;12.25;11.35;;;;;;;10.70;65.65;100249.91;4958721;28;101078;-85
2022/05/31 01:37:22;;;;;;;12.68;11.63;;;;;;;10.58;65.34;100245.97;4973796;28;98369;-83
2022/05/31 01:39:51;;;;;;;12.10;11.30;;;;;;;10.59;65.23;100237.19;4974913;28;96964;-85
2022/05/31 01:42:19;;;;;;;12.70;11.48;;;;;;;10.60;65.21;100245.94;4971868;28;97015;-83
2022/05/31 01:44:49;;;;;;;12.88;11.57;;;;;;;10.51;65.40;100252.34;4969986;28;101800;-83
2022/05/31 01:47:15;;;;;;;12.52;11.45;;;;;;;10.55;65.48;100245.22;4960022;28;100817;-83
2022/05/31 01:49:44;;;;;;;12.65;11.65;;;;;;;10.42;65.52;100248.28;4993440;28;97208;-83
2022/05/31 01:52:10;;;;;;;12.70;11.50;;;;;;;10.25;66.07;100224.34;4958953;28;97421;-84
2022/05/31 01:54:38;;;;;;;12.52;11.38;;;;;;;10.37;65.68;100246.72;4956800;28;101412;-82
2022/05/31 01:57:05;;;;;;;12.48;11.48;;;;;;;10.32;66.23;100240.78;4971895;28;101560;-83
2022/05/31 01:59:35;;;;;;;14.70;11.77;;;;;;;10.15;65.90;100228.19;4950877;28;96911;-82
2022/05/31 02:02:02;;;;;;;12.50;11.35;;;;;;;10.34;65.31;100246.84;4976883;28;96995;-83
2022/05/31 02:04:27;;;;;;;12.38;11.48;;;;;;;10.35;65.51;100244.13;4971624;28;101855;-83
2022/05/31 02:07:10;;;;;;;12.85;11.80;;;;;;;10.32;65.82;100248.63;4975930;28;101364;-83
2022/05/31 02:09:39;;;;;;;12.73;11.57;;;;;;;10.28;66.37;100253.13;4975159;28;96782;-83
2022/05/31 02:12:06;;;;;;;12.43;11.52;;;;;;;10.20;66.15;100244.63;4960155;28;96917;-84
2022/05/31 02:14:36;;;;;;;12.45;11.30;;;;;;;10.02;66.43;100224.28;4976860;28;98789;-83
2022/05/31 02:17:02;;;;;;;12.35;11.35;;;;;;;10.22;65.64;100249.84;4957077;28;101564;-83
2022/05/31 02:19:57;;;;;;;12.07;11.02;;;;;;;10.08;66.67;100248.53;4970751;28;97096;-84
2022/05/31 02:22:41;;;;;;;12.02;11.23;;;;;;;10.02;66.08;100243.47;4987578;28;96852;-83
2022/05/31 02:25:08;;;;;;;12.10;11.20;;;;;;;10.10;66.09;100248.50;4984822;28;100973;-84
2022/05/31 02:27:34;;;;;;;13.27;12.05;;;;;;;10.07;66.31;100248.59;4969599;28;101412;-84
2022/05/31 02:29:59;;;;;;;13.25;12.10;;;;;;;10.08;66.07;100248.53;4956443;28;96752;-82
2022/05/31 02:32:25;;;;;;;12.07;11.07;;;;;;;10.16;66.00;100249.13;4975874;28;97331;-83
2022/05/31 02:34:51;;;;;;;12.18;11.18;;;;;;;10.11;66.16;100244.94;4972955;28;101058;-83
2022/05/31 02:37:19;;;;;;;11.98;10.80;;;;;;;10.04;65.80;100220.69;4991606;28;101402;-83
2022/05/31 02:39:45;;;;;;;12.20;11.30;;;;;;;10.18;65.94;100255.19;4958625;28;97035;-83
2022/05/31 02:42:12;;;;;;;13.57;12.50;;;;;;;10.06;66.09;100254.72;4975386;28;96952;-83
2022/05/31 02:44:38;;;;;;;12.95;11.90;;;;;;;10.03;66.27;100252.19;4975721;28;102184;-83
2022/05/31 02:47:07;;;;;;;13.57;12.43;;;;;;;9.87;66.72;100249.25;4973380;28;100320;-84
2022/05/31 02:49:34;;;;;;;12.55;11.38;;;;;;;9.91;66.60;100256.09;4969614;28;96809;-83
2022/05/31 02:52:00;;;;;;;12.50;11.60;;;;;;;9.95;66.50;100255.09;4976084;28;97199;-82
2022/05/31 02:54:27;;;;;;;13.88;12.27;;;;;;;9.94;66.30;100248.97;4991455;28;97915;-84
2022/05/31 02:57:11;;;;;;;13.13;12.13;;;;;;;9.84;66.57;100267.69;4988218;28;97441;-83
2022/05/31 02:59:48;;;;;;;13.80;12.50;;;;;;;9.79;66.47;100259.97;4973271;28;96995;-83
2022/05/31 03:02:37;;;;;;;13.60;12.50;;;;;;;9.80;66.75;100253.78;4989777;28;96965;-83
2022/05/31 03:05:22;;;;;;;13.25;12.27;;;;;;;9.73;67.05;100252.28;4989934;28;97009;-82
2022/05/31 03:07:50;;;;;;;16.15;12.20;;;;;;;9.75;66.76;100253.09;4975135;28;99460;-82
2022/05/31 03:10:19;;;;;;;13.68;12.52;;;;;;;9.80;67.01;100251.16;4975473;28;97534;-82
2022/05/31 03:12:45;;;;;;;15.75;13.00;;;;;;;9.69;66.39;100232.34;4993212;28;97301;-82
2022/05/31 03:15:14;;;;;;;16.05;13.55;;;;;;;9.85;66.34;100254.50;4975390;28;101662;-83
2022/05/31 03:18:05;;;;;;;13.57;12.32;;;;;;;9.96;66.35;100252.41;4975248;28;101239;-82
2022/05/31 03:20:41;;;;;;;15.48;12.75;;;;;;;9.77;66.24;100242.56;4971811;28;96838;-81
2022/05/31 03:23:24;;;;;;;14.15;12.98;;;;;;;9.72;66.99;100247.97;4991910;28;96844;-82
2022/05/31 03:25:50;;;;;;;13.93;12.82;;;;;;;10.04;66.39;100267.06;4990973;28;97609;-82
2022/05/31 03:28:16;;;;;;;13.98;12.82;;;;;;;10.20;66.25;100265.63;4964635;28;102055;-82
2022/05/31 03:30:42;;;;;;;15.20;13.70;;;;;;;10.31;65.68;100271.41;4970476;28;96688;-82
2022/05/31 03:33:09;;;;;;;14.43;13.10;;;;;;;10.13;65.92;100246.63;4977097;28;96946;-82
2022/05/31 03:35:36;;;;;;;14.48;13.02;;;;;;;10.41;66.00;100261.44;4991418;28;101970;-82
2022/05/31 03:38:09;;;;;;;14.05;12.77;;;;;;;10.54;65.18;100254.03;4960659;28;101221;-84
2022/05/31 03:40:56;;;;;;;14.68;13.45;;;;;;;10.54;65.11;100267.13;4966001;28;96845;-82
2022/05/31 03:43:27;;;;;;;18.30;14.55;;;;;;;10.64;65.03;100266.75;4959555;28;98358;-83
2022/05/31 03:46:13;;;;;;;14.55;13.27;;;;;;;10.41;65.24;100264.06;4973774;28;97302;-84
2022/05/31 03:48:59;;;;;;;16.73;12.90;;;;;;;10.57;65.22;100262.63;4962099;28;99034;-82
2022/05/31 03:51:28;;;;;;;14.32;12.93;;;;;;;10.43;65.04;100278.00;4973415;28;96863;-82
2022/05/31 03:53:58;;;;;;;14.55;13.18;;;;;;;10.33;65.89;100268.75;4969914;28;97397;-82
2022/05/31 03:56:43;;;;;;;13.82;12.73;;;;;;;10.58;65.21;100269.59;4976766;28;98848;-82
2022/05/31 03:59:10;;;;;;;10.80;9.20;;;;;;;10.84;64.37;100273.06;4958044;28;100917;-82
2022/05/31 04:01:35;;;;;;;13.55;10.25;;;;;;;10.87;64.72;100281.69;4991028;28;97323;-81
2022/05/31 04:04:03;;;;;;;16.90;13.70;;;;;;;10.81;65.47;100284.53;4958795;28;97266;-81
2022/05/31 04:06:35;;;;;;;16.23;12.63;;;;;;;10.86;65.16;100284.38;4990705;28;101658;-82
2022/05/31 04:09:01;;;;;;;12.40;11.27;;;;;;;10.94;64.94;100278.84;4957388;28;101307;-82
2022/05/31 04:11:28;;;;;;;14.43;10.43;;;;;;;11.07;64.70;100288.00;4961965;28;96841;-83
2022/05/31 04:13:57;;;;;;;13.98;10.18;;;;;;;11.03;65.27;100294.28;4959360;28;96862;-82
2022/05/31 04:16:43;;;;;;;11.45;9.20;;;;;;;11.08;65.01;100274.81;5005342;28;99378;-82
2022/05/31 04:19:09;;;;;;;14.98;10.20;;;;;;;11.23;65.02;100291.78;4991175;28;101800;-82
2022/05/31 04:21:34;;;;;;;14.85;10.32;;;;;;;11.25;65.16;100302.22;4954530;28;97827;-82
2022/05/31 04:24:08;;;;;;;10.75;9.75;;;;;;;11.26;64.83;100298.69;4968072;28;98224;-82
2022/05/31 04:26:40;;;;;;;10.93;9.77;;;;;;;11.36;64.70;100288.69;4972689;28;98294;-82
2022/05/31 04:29:24;;;;;;;10.55;9.65;;;;;;;11.82;63.44;100307.97;4973894;28;97843;-82
2022/05/31 04:32:08;;;;;;;11.50;8.75;;;;;;;12.06;62.56;100306.16;4984819;28;96733;-83
2022/05/31 04:34:46;;;;;;;11.35;9.38;;;;;;;12.02;61.71;100283.53;4983621;28;97052;-82
2022/05/31 04:37:13;;;;;;;9.75;8.90;;;;;;;12.20;61.10;100302.03;5002281;28;101274;-82
2022/05/31 04:39:57;;;;;;;9.63;8.75;;;;;;;12.27;61.25;100321.06;4973037;28;97166;-83
2022/05/31 04:42:50;;;;;;;9.38;8.43;;;;;;;12.51;59.14;100310.44;4977745;28;96977;-82
2022/05/31 04:45:37;;;;;;;9.68;8.88;;;;;;;12.73;59.36;100308.59;4980049;28;96884;-82
2022/05/31 04:48:28;;;;;;;12.15;9.45;;;;;;;12.96;58.85;100309.38;4980955;28;97933;-82
2022/05/31 04:50:55;;;;;;;10.10;8.90;;;;;;;12.93;58.61;100305.09;4975035;28;98008;-83
2022/05/31 04:53:23;;;;;;;10.27;9.18;;;;;;;13.17;57.45;100318.97;4973036;28;96945;-82
2022/05/31 04:56:11;;;;;;;9.95;9.05;;;;;;;13.26;57.79;100304.53;4971174;28;97045;-82
2022/05/31 04:58:38;;;;;;;12.73;8.90;;;;;;;13.54;57.66;100312.91;4973278;28;101309;-83
2022/05/31 05:01:07;;;;;;;10.23;9.20;;;;;;;13.63;56.45;100308.13;4986124;28;100955;-82
2022/05/31 05:03:35;;;;;;;10.25;9.23;;;;;;;13.62;56.77;100303.78;4979241;28;96770;-83
2022/05/31 05:06:02;;;;;;;12.32;11.13;;;;;;;13.93;55.93;100305.81;4974971;28;96964;-83
2022/05/31 05:08:29;;;;;;;12.13;9.25;;;;;;;14.32;55.79;100303.03;4972596;28;101561;-83
2022/05/31 05:10:55;;;;;;;10.35;9.35;;;;;;;14.12;55.80;100292.59;4976547;28;100881;-83
2022/05/31 05:13:41;;;;;;;10.63;9.63;;;;;;;14.38;55.61;100299.22;4975900;28;97255;-81
2022/05/31 05:16:35;;;;;;;9.50;8.60;;;;;;;14.67;55.72;100297.78;4987931;28;97099;-81
2022/05/31 05:19:01;;;;;;;10.85;9.20;;;;;;;14.63;55.01;100309.41;5014145;28;101530;-83
2022/05/31 05:21:28;;;;;;;9.93;8.70;;;;;;;14.59;55.59;100278.81;4952311;28;101261;-81
2022/05/31 05:23:55;;;;;;;12.68;10.20;;;;;;;14.78;55.07;100294.59;4988319;28;96723;-82
2022/05/31 05:26:28;;;;;;;10.93;9.82;;;;;;;15.10;54.66;100303.47;5001052;28;97223;-81
2022/05/31 05:32:08;;;;;;;10.82;9.77;;;;;;;15.21;54.64;100285.22;4984551;28;101043;-82
2022/05/31 05:34:36;;;;;;;11.13;9.05;;;;;;;15.36;54.03;100279.13;4984535;28;96919;-82
2022/05/31 05:37:06;;;;;;;10.48;9.35;;;;;;;15.79;53.62;100299.72;4987694;28;97020;-83
2022/05/31 05:39:32;;;;;;;9.63;8.73;;;;;;;15.55;53.25;100301.91;4984093;28;101591;-83
2022/05/31 05:42:16;;;;;;;9.57;8.77;;;;;;;16.26;52.35;100304.09;4982015;28;97169;-82
2022/05/31 05:45:03;;;;;;;11.15;8.73;;;;;;;16.51;50.80;100296.44;4991245;28;98114;-82
2022/05/31 05:47:28;;;;;;;10.48;8.60;;;;;;;17.33;49.59;100299.50;4984302;28;97400;-82
2022/05/31 05:49:54;;;;;;;10.32;9.30;;;;;;;17.76;48.43;100291.47;4982267;28;101926;-78
2022/05/31 05:52:53;;;;;;;10.45;9.60;;;;;;;18.76;46.45;100289.28;4991065;28;98908;-81
2022/05/31 05:55:38;;;;;;;10.95;9.55;;;;;;;20.23;44.00;100277.03;5004803;28;96705;-79
2022/05/31 05:58:22;;;;;;;9.90;8.98;;;;;;;21.00;41.94;100296.03;5003083;28;96871;-79
2022/05/31 06:01:14;;;;;;;9.82;8.82;;;;;;;21.53;40.97;100290.16;4985894;28;97118;-79
2022/05/31 06:04:20;;;;;;;12.43;8.80;;;;;;;22.19;38.91;100290.97;4987380;28;100544;-79
2022/05/31 06:06:46;;;;;;;8.20;7.53;;;;;;;22.85;38.65;100293.41;4992193;28;97603;-79
2022/05/31 06:09:16;;;;;;;8.68;7.97;;;;;;;23.54;37.32;100289.25;4987853;28;97013;-80
2022/05/31 06:11:48;;;;;;;9.52;8.73;;;;;;;23.98;35.77;100293.34;5001382;28;101884;-79
2022/05/31 06:14:24;;;;;;;8.82;8.02;;;;;;;24.72;34.97;100292.75;4985972;28;100163;-78
2022/05/31 06:16:54;;;;;;;9.90;8.45;;;;;;;24.59;34.58;100292.25;4988049;28;97571;-80
2022/05/31 06:19:24;;;;;;;10.43;8.13;;;;;;;24.56;34.70;100296.06;4986796;28;97532;-80
2022/05/31 06:21:51;;;;;;;8.73;7.95;;;;;;;24.84;33.99;100288.06;5000174;28;101968;-79
2022/05/31 06:24:27;;;;;;;13.10;8.65;;;;;;;25.41;32.87;100264.72;4976381;28;99526;-79
2022/05/31 06:26:57;;;;;;;8.60;7.90;;;;;;;25.79;33.14;100294.22;4958529;28;97952;-79
2022/05/31 06:29:22;;;;;;;9.05;7.93;;;;;;;26.24;31.22;100285.28;4964921;28;98312;-80
2022/05/31 06:31:48;;;;;;;7.72;7.22;;;;;;;26.02;31.61;100286.59;4980259;28;98098;-80
2022/05/31 06:34:23;;;;;;;9.05;8.05;;;;;;;26.98;30.88;100273.25;4992891;28;101747;-80
2022/05/31 06:37:10;;;;;;;9.80;8.23;;;;;;;27.24;30.62;100284.03;4992035;28;96764;-81
2022/05/31 06:39:38;;;;;;;9.43;7.87;;;;;;;27.92;30.07;100285.81;4985388;28;97124;-80
2022/05/31 06:42:19;;;;;;;8.25;7.47;;;;;;;27.13;29.06;100289.66;4969087;28;99364;-80
2022/05/31 06:45:03;;;;;;;9.02;8.20;;;;;;;27.96;29.09;100289.88;5005240;28;96960;-81
2022/05/31 06:47:47;;;;;;;8.80;7.90;;;;;;;28.63;28.58;100281.69;5003373;28;96686;-80
2022/05/31 06:50:31;;;;;;;8.65;7.80;;;;;;;29.03;27.91;100288.91;5000221;28;97169;-80
2022/05/31 06:59:04;;;;;;;8.23;7.10;;;;;;;29.87;26.33;100273.00;4994804;28;97232;-81
2022/05/31 07:01:37;;;;;;;7.45;6.95;;;;;;;29.62;25.92;100277.72;4982480;28;97750;-80
2022/05/31 07:04:03;;;;;;;7.63;6.90;;;;;;;29.12;26.29;100278.91;4991974;28;97863;-80
2022/05/31 07:06:28;;;;;;;7.22;6.63;;;;;;;29.56;26.63;100271.13;4975417;28;98022;-80
2022/05/31 07:09:14;;;;;;;8.65;7.13;;;;;;;30.62;25.50;100280.41;4988197;28;97889;-82
2022/05/31 07:11:42;;;;;;;7.57;6.88;;;;;;;31.33;24.42;100280.88;4966737;28;97753;-81
2022/05/31 07:14:27;;;;;;;7.88;7.28;;;;;;;31.46;24.45;100276.66;4986256;28;97177;-80
2022/05/31 07:17:11;;;;;;;9.57;6.97;;;;;;;31.01;24.33;100276.66;4997033;28;98283;-81
2022/05/31 07:19:43;;;;;;;7.38;6.68;;;;;;;31.14;24.60;100273.28;4985955;28;97496;-77
2022/05/31 07:22:09;;;;;;;7.43;6.93;;;;;;;30.88;24.63;100273.75;4983729;28;96981;-77
2022/05/31 07:24:38;;;;;;;9.95;8.20;;;;;;;30.83;24.49;100254.50;4984692;28;100030;-77
2022/05/31 07:27:20;;;;;;;10.02;9.13;;;;;;;30.84;24.50;100254.31;5000788;28;100958;-77
2022/05/31 07:29:48;;;;;;;7.13;6.22;;;;;;;30.87;24.14;100256.66;4978487;28;96851;-77
2022/05/31 07:32:13;;;;;;;7.15;6.63;;;;;;;30.68;24.37;100249.88;4981664;28;97331;-78
2022/05/31 07:34:40;;;;;;;9.13;6.90;;;;;;;31.37;24.07;100261.53;4976807;28;101382;-77
2022/05/31 07:37:06;;;;;;;6.97;6.30;;;;;;;30.85;24.09;100260.56;4968416;28;100651;-77
2022/05/31 07:39:31;;;;;;;7.13;6.53;;;;;;;30.86;23.89;100264.97;4997893;28;98187;-77
2022/05/31 07:41:58;;;;;;;7.03;6.50;;;;;;;30.91;24.39;100262.53;4986680;28;97210;-77
2022/05/31 07:44:26;;;;;;;8.63;7.82;;;;;;;31.78;23.67;100250.97;5004499;28;101486;-77
2022/05/31 07:46:53;;;;;;;7.10;6.40;;;;;;;32.56;23.34;100253.84;4983769;28;101948;-78
2022/05/31 07:49:20;;;;;;;7.32;6.70;;;;;;;32.69;24.28;100251.22;4998743;28;97238;-80
2022/05/31 07:51:56;;;;;;;6.80;6.32;;;;;;;32.67;22.58;100247.88;4998666;28;97406;-79
2022/05/31 07:54:40;;;;;;;6.47;5.85;;;;;;;31.46;24.32;100244.97;5000662;28;97456;-81
2022/05/31 08:00:15;;;;;;;5.88;5.47;;;;;;;30.73;25.02;100245.78;5006171;28;97243;-79
2022/05/31 08:02:47;;;;;;;5.30;4.95;;;;;;;31.24;25.28;100243.19;5003187;28;97031;-79
2022/05/31 08:05:13;;;;;;;6.30;5.90;;;;;;;31.39;24.17;100257.63;5007105;28;100649;-80
2022/05/31 08:07:39;;;;;;;6.22;5.80;;;;;;;30.79;24.35;100226.94;4962020;28;101263;-80
2022/05/31 08:10:06;;;;;;;6.38;5.97;;;;;;;30.72;25.11;100252.22;4984846;28;97895;-79
2022/05/31 08:12:31;;;;;;;6.70;6.25;;;;;;;31.18;24.75;100243.94;4979230;28;98032;-79
2022/05/31 08:14:57;;;;;;;7.20;6.60;;;;;;;31.62;23.98;100230.34;4989836;28;101860;-80
2022/05/31 08:17:22;;;;;;;6.30;5.80;;;;;;;31.56;23.34;100242.81;4984275;28;98364;-79
2022/05/31 08:19:48;;;;;;;6.50;5.90;;;;;;;31.17;22.96;100239.56;4982473;28;98084;-79
2022/05/31 08:22:13;;;;;;;6.32;5.60;;;;;;;30.00;24.33;100235.38;5001068;28;97412;-79
2022/05/31 08:24:39;;;;;;;6.22;5.82;;;;;;;30.43;24.82;100246.56;4999230;28;98018;-80
2022/05/31 08:27:05;;;;;;;8.65;6.30;;;;;;;30.30;25.26;100235.50;5000627;28;100804;-80
2022/05/31 08:29:31;;;;;;;6.43;5.93;;;;;;;31.56;24.19;100240.09;5017906;28;97686;-80
2022/05/31 08:31:58;;;;;;;6.95;6.05;;;;;;;31.98;23.06;100230.31;5004308;28;97304;-80
2022/05/31 08:34:26;;;;;;;7.50;6.38;;;;;;;31.51;23.22;100233.56;4984018;28;101278;-78
2022/05/31 08:36:51;;;;;;;6.50;6.10;;;;;;;31.54;22.67;100231.28;4989245;28;101288;-79
2022/05/31 08:39:17;;;;;;;6.50;6.00;;;;;;;31.79;22.77;100220.06;4955515;28;96783;-78
2022/05/31 08:41:45;;;;;;;6.53;5.93;;;;;;;31.80;22.40;100213.63;5005269;28;97240;-79
2022/05/31 08:44:19;;;;;;;6.00;5.63;;;;;;;31.77;22.00;100230.31;4979471;28;101496;-79
2022/05/31 08:46:48;;;;;;;6.57;6.15;;;;;;;31.54;22.83;100227.75;4979596;28;101639;-79
2022/05/31 08:49:18;;;;;;;6.32;5.93;;;;;;;31.22;23.13;100216.28;4996901;28;96975;-79
2022/05/31 08:51:58;;;;;;;6.00;5.60;;;;;;;30.86;22.00;100217.06;4968357;28;97373;-79
2022/05/31 08:57:48;;;;;;;6.53;6.03;;;;;;;29.58;23.61;100205.19;5004274;28;100863;-78
2022/05/31 09:00:23;;;;;;;6.15;5.75;;;;;;;28.97;24.45;100202.25;4980989;28;96772;-78
2022/05/31 09:03:07;;;;;;;5.82;5.43;;;;;;;28.70;24.34;100181.91;4972292;28;97017;-79
2022/05/31 09:05:40;;;;;;;6.40;5.90;;;;;;;28.88;24.25;100193.34;4983635;28;97593;-79
2022/05/31 09:08:13;;;;;;;6.20;5.70;;;;;;;28.14;25.01;100171.88;5000748;28;97847;-79
2022/05/31 09:11:17;;;;;;;8.38;6.32;;;;;;;27.62;25.72;100200.97;4986081;28;96899;-79
2022/05/31 09:13:49;;;;;;;6.55;5.88;;;;;;;27.51;26.85;100181.38;4969310;28;97077;-78
2022/05/31 09:16:38;;;;;;;9.93;5.78;;;;;;;27.22;26.93;100197.13;4995714;28;101241;-82
2022/05/31 09:19:06;;;;;;;5.97;5.60;;;;;;;27.21;27.02;100198.16;5011645;28;99293;-82
2022/05/31 09:21:41;;;;;;;6.90;6.25;;;;;;;26.49;27.85;100193.00;4987082;28;96877;-82
2022/05/31 09:24:13;;;;;;;5.88;5.47;;;;;;;27.10;27.37;100194.69;4985152;28;96869;-82
2022/05/31 09:26:59;;;;;;;6.28;5.80;;;;;;;26.86;25.88;100190.06;4987233;28;102401;-81
2022/05/31 09:29:34;;;;;;;7.22;5.57;;;;;;;26.82;26.05;100186.00;4999993;28;101444;-81
2022/05/31 09:32:09;;;;;;;6.03;5.50;;;;;;;26.87;26.75;100183.66;4960498;28;96800;-81
2022/05/31 09:34:50;;;;;;;6.40;5.68;;;;;;;26.89;26.89;100175.44;4971622;28;97734;-82
2022/05/31 09:37:40;;;;;;;6.72;5.50;;;;;;;26.60;27.75;100173.09;4991833;28;97988;-81
2022/05/31 09:40:21;;;;;;;6.97;5.72;;;;;;;26.34;28.03;100171.19;4992326;28;101790;-83
2022/05/31 09:43:05;;;;;;;;;;;;;;;25.92;28.02;100171.91;5009377;28;97246;-84
2022/05/31 09:45:33;;;;;;;6.43;5.82;;;;;;;25.65;28.91;100164.72;5027901;27;97298;-83
2022/05/31 09:48:00;;;;;;;5.72;5.32;;;;;;;25.53;29.40;100164.09;4990630;28;97673;-81
2022/05/31 09:50:28;;;;;;;5.43;4.93;;;;;;;25.43;29.32;100159.81;4958052;28;102206;-81
2022/05/31 09:52:57;;;;;;;7.70;5.13;;;;;;;25.23;28.74;100164.44;4976007;28;97399;-80
2022/05/31 09:58:40;;;;;;;5.63;5.22;;;;;;;24.34;30.46;100146.94;4992683;28;97160;-80
2022/05/31 10:01:46;;;;;;;5.95;5.50;;;;;;;24.26;30.27;100156.72;4954980;28;97809;-77
2022/05/31 10:04:34;;;;;;;6.27;5.77;;;;;;;24.06;31.19;100159.44;4941679;28;97042;-81
2022/05/31 10:07:03;;;;;;;6.07;5.47;;;;;;;23.97;31.04;100159.44;4958749;28;97057;-77
2022/05/31 10:09:38;;;;;;;5.75;5.25;;;;;;;23.87;31.54;100154.94;4993270;28;97920;-82
2022/05/31 10:12:21;;;;;;;5.78;5.38;;;;;;;24.17;32.10;100143.19;4959594;28;101531;-75
2022/05/31 10:14:51;;;;;;;7.03;5.40;;;;;;;24.10;31.75;100142.06;4990366;28;97297;-76
2022/05/31 10:17:42;;;;;;;6.30;5.80;;;;;;;23.64;32.34;100148.97;4975092;28;97361;-75
2022/05/31 10:20:23;;;;;;;5.97;5.53;;;;;;;23.38;32.26;100143.31;4977233;28;99388;-80
2022/05/31 10:23:00;;;;;;;6.07;5.68;;;;;;;23.76;32.58;100136.31;4974727;28;98136;-79
2022/05/31 10:25:53;;;;;;;5.55;4.97;;;;;;;24.09;32.07;100142.22;4980295;28;98251;-80
2022/05/31 10:28:56;;;;;;;5.88;5.40;;;;;;;23.94;31.88;100131.94;4955925;28;98729;-80
2022/05/31 10:31:41;;;;;;;5.70;5.30;;;;;;;23.71;32.72;100103.75;4962172;28;99609;-83
2022/05/31 10:34:21;;;;;;;;;;;;;;;23.71;32.64;100133.22;4975447;28;97528;-81
2022/05/31 10:36:52;;;;;;;6.18;5.53;;;;;;;23.09;33.26;100113.78;4991678;28;96762;-82
2022/05/31 10:39:21;;;;;;;8.55;5.55;;;;;;;23.12;34.23;100134.94;4998284;28;97125;-82
2022/05/31 10:41:49;;;;;;;6.28;5.78;;;;;;;23.08;33.58;100133.53;4994668;28;97996;-82
2022/05/31 10:44:18;;;;;;;6.07;5.60;;;;;;;23.03;33.43;100128.56;4979979;28;101399;-82
2022/05/31 10:46:46;;;;;;;6.65;6.15;;;;;;;22.74;33.24;100138.31;4984858;28;96958;-83
2022/05/31 10:49:16;;;;;;;6.57;5.50;;;;;;;22.65;34.41;100133.78;4991233;28;96842;-82
2022/05/31 10:52:00;;;;;;;5.55;5.22;;;;;;;22.80;34.83;100133.25;4974173;28;101323;-79
2022/05/31 10:54:45;;;;;;;6.00;5.45;;;;;;;23.00;34.58;100123.50;4985443;28;99746;-82
2022/05/31 10:57:46;;;;;;;6.10;5.60;;;;;;;23.25;34.36;100119.47;4975272;28;97628;-81
2022/05/31 11:00:24;;;;;;;;;;;;;;;23.46;33.66;100118.50;4979910;28;97168;-78
2022/05/31 11:03:28;;;;;;;5.95;5.28;;;;;;;23.17;34.13;100115.78;4974829;28;101547;-77
2022/05/31 11:06:09;;;;;;;4.78;4.38;;;;;;;23.25;34.42;100108.75;4972551;28;101032;-77
2022/05/31 11:11:54;;;;;;;5.20;4.80;;;;;;;22.99;34.52;100103.09;4993632;28;97096;-78
2022/05/31 11:14:37;;;;;;;8.82;7.53;;;;;;;22.80;34.93;100095.78;4961393;28;101396;-77
2022/05/31 11:17:32;;;;;;;5.28;4.88;;;;;;;22.67;34.73;100092.53;4974933;28;100615;-78
2022/05/31 11:20:18;;;;;;;4.95;4.60;;;;;;;22.60;35.25;100099.38;4996289;28;96992;-84
2022/05/31 11:23:11;;;;;;;5.47;5.07;;;;;;;22.36;35.68;100091.69;5010212;28;97011;-80
2022/05/31 11:26:07;;;;;;;5.88;4.85;;;;;;;22.08;36.02;100091.38;4992806;28;98685;-80
2022/05/31 11:29:17;;;;;;;5.15;4.78;;;;;;;22.20;36.34;100089.50;4992051;28;100952;-80
2022/05/31 11:32:22;;;;;;;5.65;5.13;;;;;;;22.35;35.71;100063.28;4970487;28;97344;-81
2022/05/31 11:35:00;;;;;;;6.47;5.10;;;;;;;22.07;36.05;100086.16;4997250;28;97325;-79
2022/05/31 11:37:35;;;;;;;7.68;5.65;;;;;;;21.90;36.05;100088.47;4992766;28;98023;-85
2022/05/31 11:40:04;;;;;;;6.57;5.15;;;;;;;21.84;35.85;100075.59;4978307;28;101980;-80
2022/05/31 11:42:56;;;;;;;4.88;4.55;;;;;;;21.99;36.11;100077.94;4999745;28;96803;-84
2022/05/31 11:45:41;;;;;;;6.60;5.97;;;;;;;22.14;36.04;100073.97;5008943;28;97765;-80
2022/05/31 11:48:31;;;;;;;6.00;5.50;;;;;;;21.78;35.77;100054.75;4998036;28;101231;-79
2022/05/31 11:51:16;;;;;;;5.25;4.90;;;;;;;21.57;36.54;100075.28;5013573;28;101536;-80
2022/05/31 11:53:59;;;;;;;7.57;5.60;;;;;;;21.64;36.79;100069.31;5007246;28;96897;-79
2022/05/31 11:56:48;;;;;;;5.60;5.20;;;;;;;21.81;36.66;100067.84;4966621;28;96978;-82
2022/05/31 11:59:31;;;;;;;8.93;8.40;;;;;;;22.07;37.36;100062.09;4990904;28;98144;-82
2022/05/31 12:02:30;;;;;;;9.18;8.57;;;;;;;22.33;36.87;100052.69;4995763;28;97916;-82
2022/05/31 12:04:59;;;;;;;9.10;8.60;;;;;;;22.34;36.67;100049.06;4970346;28;98722;-83
2022/05/31 12:07:39;;;;;;;9.60;8.90;;;;;;;22.43;36.86;100054.56;4971170;28;97145;-85
2022/05/31 12:10:11;;;;;;;9.20;8.65;;;;;;;22.44;35.36;100058.94;4993873;28;100164;-86
2022/05/31 12:12:39;;;;;;;9.20;8.55;;;;;;;22.38;35.87;100045.13;4963102;28;101217;-85